Time;durP1;ratioP1;P1;durP2;ratioP2;P2;SDS_P1;SDS_P2;PMS_P1;PMS_P2;Temp;Humidity;BMP_temperature;BMP_pressure;BME280_temperature;BME280_humidity;BME280_pressure;Samples;Min_cycle;Max_cycle;Signal;HPM_P1;HPM_P2
2022/12/10 00:00:47;;;;;;;35.90;17.25;;;;;;;;;;4990777;28;20058;-58
2022/12/10 00:03:15;;;;;;;43.45;19.10;;;;;;;;;;4989399;28;20049;-57
2022/12/10 00:05:42;;;;;;;38.92;19.05;;;;;;;;;;4990563;28;20059;-57
2022/12/10 00:08:10;;;;;;;42.90;19.30;;;;;;;;;;4990572;28;20043;-57
2022/12/10 00:10:41;;;;;;;35.55;18.63;;;;;;;;;;4990525;28;20050;-57
2022/12/10 00:13:08;;;;;;;37.63;18.92;;;;;;;;;;4990463;28;20039;-58
2022/12/10 00:15:36;;;;;;;34.83;19.35;;;;;;;;;;4990568;28;20078;-57
2022/12/10 00:18:03;;;;;;;39.15;19.40;;;;;;;;;;4990493;28;20042;-57
2022/12/10 00:20:30;;;;;;;36.72;18.75;;;;;;;;;;4990221;28;20050;-58
2022/12/10 00:22:58;;;;;;;30.88;17.88;;;;;;;;;;4990333;28;20035;-58
2022/12/10 00:25:25;;;;;;;34.25;17.33;;;;;;;;;;4990183;28;20054;-57
2022/12/10 00:27:53;;;;;;;41.17;19.63;;;;;;;;;;4990235;28;20133;-57
2022/12/10 00:30:20;;;;;;;37.45;19.02;;;;;;;;;;4989096;28;20565;-57
2022/12/10 00:32:48;;;;;;;35.70;18.33;;;;;;;;;;4988821;28;20042;-57
2022/12/10 00:35:15;;;;;;;40.08;19.33;;;;;;;;;;4989142;28;20058;-58
2022/12/10 00:37:42;;;;;;;31.08;18.20;;;;;;;;;;4988624;28;20042;-58
2022/12/10 00:40:10;;;;;;;30.98;17.05;;;;;;;;;;4988953;28;20072;-58
2022/12/10 00:42:39;;;;;;;34.30;16.42;;;;;;;;;;4991546;28;20706;-57
2022/12/10 00:45:07;;;;;;;38.15;17.55;;;;;;;;;;4992322;28;20118;-58
2022/12/10 00:47:35;;;;;;;33.65;16.95;;;;;;;;;;4993597;28;20564;-57
2022/12/10 00:50:02;;;;;;;29.45;15.50;;;;;;;;;;4992175;28;20054;-58
2022/12/10 00:52:30;;;;;;;32.22;16.17;;;;;;;;;;4992270;28;20129;-58
2022/12/10 00:54:57;;;;;;;29.63;16.70;;;;;;;;;;4992168;28;20080;-57
2022/12/10 00:57:26;;;;;;;27.17;15.98;;;;;;;;;;4992162;28;20070;-58
2022/12/10 00:59:53;;;;;;;33.10;17.45;;;;;;;;;;4993570;28;20042;-58
2022/12/10 01:02:21;;;;;;;37.75;18.10;;;;;;;;;;4993569;28;20047;-58
2022/12/10 01:04:52;;;;;;;44.50;18.85;;;;;;;;;;4992028;28;20705;-58
2022/12/10 01:07:20;;;;;;;48.10;17.80;;;;;;;;;;4992136;28;20100;-59
2022/12/10 01:09:47;;;;;;;41.38;17.23;;;;;;;;;;4992037;28;20057;-57
2022/12/10 01:12:15;;;;;;;50.10;17.73;;;;;;;;;;4993310;28;20034;-58
2022/12/10 01:14:42;;;;;;;40.03;17.73;;;;;;;;;;4992044;28;20088;-57
2022/12/10 01:17:10;;;;;;;44.97;17.17;;;;;;;;;;4993030;28;20117;-57
2022/12/10 01:19:37;;;;;;;68.60;17.05;;;;;;;;;;4991783;28;20100;-57
2022/12/10 01:22:05;;;;;;;50.10;17.77;;;;;;;;;;4992002;28;20419;-58
2022/12/10 01:24:32;;;;;;;52.05;16.77;;;;;;;;;;4991661;28;20055;-58
2022/12/10 01:27:00;;;;;;;34.83;18.20;;;;;;;;;;4991654;28;20491;-58
2022/12/10 01:29:27;;;;;;;36.58;16.73;;;;;;;;;;4975691;28;20050;-57
2022/12/10 01:31:56;;;;;;;33.78;18.20;;;;;;;;;;4993099;28;20051;-57
2022/12/10 01:34:24;;;;;;;36.80;18.65;;;;;;;;;;4993163;28;20175;-56
2022/12/10 01:36:55;;;;;;;34.83;16.80;;;;;;;;;;5028573;28;20168;-57
2022/12/10 01:39:23;;;;;;;52.15;17.83;;;;;;;;;;5095673;28;20119;-57
2022/12/10 01:41:53;;;;;;;31.00;16.85;;;;;;;;;;5094353;28;20566;-57
2022/12/10 01:44:20;;;;;;;32.67;16.85;;;;;;;;;;5094103;28;20040;-57
2022/12/10 01:46:49;;;;;;;35.83;17.70;;;;;;;;;;5094190;28;20055;-58
2022/12/10 01:49:18;;;;;;;33.60;17.13;;;;;;;;;;5095326;28;20044;-57
2022/12/10 01:51:47;;;;;;;43.75;18.33;;;;;;;;;;5094157;28;20497;-57
2022/12/10 01:54:35;;;;;;;40.08;18.70;;;;;;;;;;5094657;28;20589;-57
2022/12/10 01:57:04;;;;;;;35.95;17.52;;;;;;;;;;5095415;28;20047;-58
2022/12/10 01:59:32;;;;;;;36.33;17.10;;;;;;;;;;5093786;28;20036;-57
2022/12/10 02:02:09;;;;;;;30.98;16.13;;;;;;;;;;5095238;28;20040;-57
2022/12/10 02:04:37;;;;;;;30.42;16.40;;;;;;;;;;5093814;28;20050;-57
2022/12/10 02:07:23;;;;;;;28.63;16.33;;;;;;;;;;5093956;28;20040;-57
2022/12/10 02:09:50;;;;;;;32.22;17.42;;;;;;;;;;5095049;28;20067;-57
2022/12/10 02:12:23;;;;;;;31.55;16.50;;;;;;;;;;5093654;28;20494;-57
2022/12/10 02:14:50;;;;;;;31.80;16.55;;;;;;;;;;5093546;28;20481;-57
2022/12/10 02:17:24;;;;;;;51.60;17.15;;;;;;;;;;5093602;28;20039;-57
2022/12/10 02:20:00;;;;;;;39.55;16.48;;;;;;;;;;5093443;28;20094;-58
2022/12/10 02:22:30;;;;;;;30.70;15.68;;;;;;;;;;5093457;28;20139;-57
2022/12/10 02:24:58;;;;;;;32.28;16.70;;;;;;;;;;5093375;28;20102;-57
2022/12/10 02:27:52;;;;;;;31.40;16.75;;;;;;;;;;5093483;28;20048;-57
2022/12/10 02:30:20;;;;;;;31.63;16.55;;;;;;;;;;5056453;28;20071;-58
2022/12/10 02:32:49;;;;;;;31.60;16.90;;;;;;;;;;5093417;28;20040;-58
2022/12/10 02:35:21;;;;;;;31.45;15.98;;;;;;;;;;5093344;28;20101;-57
2022/12/10 02:37:51;;;;;;;33.20;17.77;;;;;;;;;;5093344;28;20074;-57
2022/12/10 02:40:26;;;;;;;30.05;16.35;;;;;;;;;;5093215;28;20071;-57
2022/12/10 02:42:54;;;;;;;29.33;16.30;;;;;;;;;;5093570;28;20056;-57
2022/12/10 02:45:23;;;;;;;38.08;18.63;;;;;;;;;;5094424;28;20120;-58
2022/12/10 02:47:54;;;;;;;38.13;19.45;;;;;;;;;;5093175;28;20055;-57
2022/12/10 02:50:23;;;;;;;35.45;18.00;;;;;;;;;;5093255;28;20101;-57
2022/12/10 02:52:50;;;;;;;37.63;18.25;;;;;;;;;;5093101;28;20055;-57
2022/12/10 02:55:21;;;;;;;50.25;19.42;;;;;;;;;;5092972;28;20466;-57
2022/12/10 02:58:01;;;;;;;39.50;19.45;;;;;;;;;;5093177;28;20370;-57
2022/12/10 03:00:30;;;;;;;42.55;19.05;;;;;;;;;;5094059;28;20051;-57
2022/12/10 03:03:17;;;;;;;31.65;17.83;;;;;;;;;;5092721;28;20060;-57
2022/12/10 03:05:58;;;;;;;31.88;17.13;;;;;;;;;;5091980;28;20493;-57
2022/12/10 03:08:31;;;;;;;27.00;15.27;;;;;;;;;;5092784;28;20553;-58
2022/12/10 03:11:05;;;;;;;32.47;17.25;;;;;;;;;;5093895;28;20043;-57
2022/12/10 03:13:35;;;;;;;37.08;18.05;;;;;;;;;;5093986;28;20044;-57
2022/12/10 03:16:03;;;;;;;35.72;17.23;;;;;;;;;;5094214;28;20382;-58
2022/12/10 03:18:32;;;;;;;39.92;17.45;;;;;;;;;;5093825;28;20036;-57
2022/12/10 03:21:03;;;;;;;35.60;18.33;;;;;;;;;;5093827;28;20083;-57
2022/12/10 03:23:32;;;;;;;34.05;17.55;;;;;;;;;;5093766;28;20409;-57
2022/12/10 03:26:01;;;;;;;32.88;17.50;;;;;;;;;;5058229;28;20058;-58
2022/12/10 03:28:31;;;;;;;32.47;17.40;;;;;;;;;;4991185;28;20043;-58
2022/12/10 03:30:58;;;;;;;28.30;16.17;;;;;;;;;;4991289;28;20031;-58
2022/12/10 03:33:26;;;;;;;28.00;15.50;;;;;;;;;;4989939;28;20092;-57
2022/12/10 03:35:54;;;;;;;31.70;17.40;;;;;;;;;;4991191;28;20042;-57
2022/12/10 03:38:21;;;;;;;31.05;17.05;;;;;;;;;;4990879;28;20040;-58
2022/12/10 03:40:49;;;;;;;29.98;16.40;;;;;;;;;;4991272;28;20073;-58
2022/12/10 03:43:16;;;;;;;31.55;17.35;;;;;;;;;;4990969;28;20553;-57
2022/12/10 03:45:43;;;;;;;39.10;17.63;;;;;;;;;;4989621;28;20054;-58
2022/12/10 03:48:11;;;;;;;41.55;18.92;;;;;;;;;;4990994;28;20055;-58
2022/12/10 03:50:38;;;;;;;35.78;17.70;;;;;;;;;;4990837;28;20077;-58
2022/12/10 03:53:06;;;;;;;34.00;18.48;;;;;;;;;;4990760;28;20047;-57
2022/12/10 03:55:33;;;;;;;34.38;18.05;;;;;;;;;;4989345;28;20054;-57
2022/12/10 03:58:01;;;;;;;36.70;20.40;;;;;;;;;;4990515;28;20492;-57
2022/12/10 04:00:28;;;;;;;33.50;18.05;;;;;;;;;;4990572;28;20430;-57
2022/12/10 04:02:56;;;;;;;34.53;18.63;;;;;;;;;;4990224;28;20117;-58
2022/12/10 04:05:23;;;;;;;37.72;19.45;;;;;;;;;;4990422;28;20092;-58
2022/12/10 04:07:51;;;;;;;35.83;19.40;;;;;;;;;;4990550;28;20084;-57
2022/12/10 04:10:18;;;;;;;35.75;19.48;;;;;;;;;;4989062;28;20042;-58
2022/12/10 04:16:26;;;;;;;43.10;19.95;;;;;;;;;;4989302;28;20421;-57
2022/12/10 04:18:19;;;;;;;39.08;18.88;;;;;;;;;;4989808;28;20051;-58
2022/12/10 04:29:06;;;;;;;40.17;19.90;;;;;;;;;;5091130;28;20375;-57
2022/12/10 04:31:34;;;;;;;38.20;19.33;;;;;;;;;;5092525;28;20119;-57
2022/12/10 04:34:01;;;;;;;39.90;20.67;;;;;;;;;;5092353;28;20074;-57
2022/12/10 04:36:29;;;;;;;50.13;23.48;;;;;;;;;;5092582;28;20044;-56
2022/12/10 04:38:56;;;;;;;48.33;23.83;;;;;;;;;;5092284;28;20048;-57
2022/12/10 04:41:24;;;;;;;49.60;23.70;;;;;;;;;;5092755;28;20105;-57
2022/12/10 04:43:52;;;;;;;48.10;23.98;;;;;;;;;;5092353;28;20044;-58
2022/12/10 04:46:20;;;;;;;45.55;22.23;;;;;;;;;;5092336;28;20040;-57
2022/12/10 04:48:47;;;;;;;44.63;21.58;;;;;;;;;;5092306;28;20044;-58
2022/12/10 04:51:15;;;;;;;37.17;20.05;;;;;;;;;;5092144;28;20070;-58
2022/12/10 04:53:44;;;;;;;44.88;20.02;;;;;;;;;;5092300;28;20123;-58
2022/12/10 04:56:11;;;;;;;45.13;21.13;;;;;;;;;;5092338;28;20044;-58
2022/12/10 04:58:39;;;;;;;36.22;20.10;;;;;;;;;;5091012;28;20044;-58
2022/12/10 05:01:08;;;;;;;34.20;18.98;;;;;;;;;;5092291;28;20044;-57
2022/12/10 05:03:36;;;;;;;36.53;20.13;;;;;;;;;;5092115;28;20047;-58
2022/12/10 05:06:08;;;;;;;34.60;19.52;;;;;;;;;;5092301;28;20044;-58
2022/12/10 05:08:36;;;;;;;41.65;21.92;;;;;;;;;;5092194;28;20040;-58
2022/12/10 05:11:04;;;;;;;36.03;19.98;;;;;;;;;;5092427;28;20048;-58
2022/12/10 05:13:31;;;;;;;32.92;18.42;;;;;;;;;;5092345;28;20044;-58
2022/12/10 05:16:01;;;;;;;34.53;18.90;;;;;;;;;;5092268;28;20079;-58
2022/12/10 05:18:29;;;;;;;32.45;19.10;;;;;;;;;;5092213;28;20048;-58
2022/12/10 05:20:59;;;;;;;34.67;19.52;;;;;;;;;;5092131;28;20102;-58
2022/12/10 05:23:29;;;;;;;35.70;19.27;;;;;;;;;;5092078;28;20040;-58
2022/12/10 05:26:11;;;;;;;35.03;19.77;;;;;;;;;;5090814;28;20059;-58
2022/12/10 05:28:42;;;;;;;32.22;18.38;;;;;;;;;;5092122;28;20110;-58
2022/12/10 05:31:17;;;;;;;34.22;18.77;;;;;;;;;;5095852;28;20047;-58
2022/12/10 05:33:45;;;;;;;35.28;19.48;;;;;;;;;;5094531;28;20052;-58
2022/12/10 05:36:14;;;;;;;35.55;18.95;;;;;;;;;;5095619;28;20040;-58
2022/12/10 05:38:42;;;;;;;36.17;20.25;;;;;;;;;;5095489;28;20039;-57
2022/12/10 05:41:11;;;;;;;32.72;18.95;;;;;;;;;;5095528;28;20428;-58
2022/12/10 05:43:39;;;;;;;37.40;21.70;;;;;;;;;;5095537;28;20038;-57
2022/12/10 05:46:07;;;;;;;37.00;22.10;;;;;;;;;;5095724;28;20143;-58
2022/12/10 05:48:35;;;;;;;42.28;27.42;;;;;;;;;;5095201;28;20040;-57
2022/12/10 05:51:07;;;;;;;38.40;22.67;;;;;;;;;;5095356;28;20051;-58
2022/12/10 05:53:34;;;;;;;37.15;22.17;;;;;;;;;;5095343;28;20040;-57
2022/12/10 05:56:09;;;;;;;41.38;23.42;;;;;;;;;;5095214;28;20119;-58
2022/12/10 05:58:36;;;;;;;44.05;24.45;;;;;;;;;;5095216;28;20036;-58
2022/12/10 06:01:08;;;;;;;44.45;26.67;;;;;;;;;;5094960;28;20075;-58
2022/12/10 06:03:35;;;;;;;44.38;25.75;;;;;;;;;;5095014;28;20063;-58
2022/12/10 06:06:03;;;;;;;38.70;22.27;;;;;;;;;;5095062;28;20768;-58
2022/12/10 06:08:31;;;;;;;42.05;23.40;;;;;;;;;;5095068;28;20071;-58
2022/12/10 06:11:02;;;;;;;43.47;23.10;;;;;;;;;;5095012;28;20093;-58
2022/12/10 06:13:29;;;;;;;41.17;22.92;;;;;;;;;;5094801;28;20040;-58
2022/12/10 06:15:57;;;;;;;42.08;23.77;;;;;;;;;;5094954;28;20101;-57
2022/12/10 06:18:25;;;;;;;46.78;24.10;;;;;;;;;;5094722;28;20036;-58
2022/12/10 06:20:52;;;;;;;42.75;22.75;;;;;;;;;;5093317;28;20059;-57
2022/12/10 06:23:19;;;;;;;41.80;22.85;;;;;;;;;;5095017;28;20123;-59
2022/12/10 06:25:47;;;;;;;36.22;21.55;;;;;;;;;;5094506;28;20093;-61
2022/12/10 06:28:14;;;;;;;38.03;22.30;;;;;;;;;;5094492;28;20074;-58
2022/12/10 06:30:42;;;;;;;39.42;22.90;;;;;;;;;;5094409;28;20106;-58
2022/12/10 06:33:09;;;;;;;38.92;22.52;;;;;;;;;;5094446;28;20086;-59
2022/12/10 06:35:38;;;;;;;36.80;22.05;;;;;;;;;;5094241;28;20040;-57
2022/12/10 06:38:05;;;;;;;40.22;23.42;;;;;;;;;;5094246;28;20532;-58
2022/12/10 06:40:32;;;;;;;42.00;23.45;;;;;;;;;;5092893;28;20032;-59
2022/12/10 06:43:00;;;;;;;43.35;22.67;;;;;;;;;;5094117;28;20040;-59
2022/12/10 06:45:27;;;;;;;39.30;21.83;;;;;;;;;;5092782;28;20040;-58
2022/12/10 06:47:55;;;;;;;33.90;19.63;;;;;;;;;;5094215;28;20044;-57
2022/12/10 06:50:25;;;;;;;37.47;21.05;;;;;;;;;;5092939;28;20110;-58
2022/12/10 06:52:53;;;;;;;32.92;18.88;;;;;;;;;;5094142;28;20040;-59
2022/12/10 06:55:21;;;;;;;30.95;17.50;;;;;;;;;;5033140;28;20113;-58
2022/12/10 06:57:52;;;;;;;30.90;17.38;;;;;;;;;;4991306;28;20555;-58
2022/12/10 07:00:20;;;;;;;28.88;17.70;;;;;;;;;;4990889;28;20046;-60
2022/12/10 07:02:49;;;;;;;27.45;17.13;;;;;;;;;;4991079;28;20038;-58
2022/12/10 07:05:16;;;;;;;29.40;17.65;;;;;;;;;;4989602;28;20446;-58
2022/12/10 07:07:44;;;;;;;28.38;16.58;;;;;;;;;;4990878;28;20096;-58
2022/12/10 07:10:13;;;;;;;30.20;19.90;;;;;;;;;;4990503;28;20070;-58
2022/12/10 07:12:41;;;;;;;29.00;18.80;;;;;;;;;;4991521;28;20111;-60
2022/12/10 07:15:08;;;;;;;27.00;19.40;;;;;;;;;;4991365;28;20510;-58
2022/12/10 07:17:36;;;;;;;25.65;17.70;;;;;;;;;;4991324;28;20040;-58
2022/12/10 07:20:04;;;;;;;31.10;21.23;;;;;;;;;;4991141;28;20057;-59
2022/12/10 07:22:31;;;;;;;25.88;17.92;;;;;;;;;;4991279;28;20034;-58
2022/12/10 07:24:59;;;;;;;25.02;17.52;;;;;;;;;;4998898;28;20102;-59
2022/12/10 07:27:27;;;;;;;22.73;15.93;;;;;;;;;;5005755;28;20444;-58
2022/12/10 07:29:54;;;;;;;23.02;16.15;;;;;;;;;;4971634;28;20047;-58
2022/12/10 07:32:22;;;;;;;19.92;13.85;;;;;;;;;;4971721;28;20047;-58
2022/12/10 07:34:50;;;;;;;20.52;14.88;;;;;;;;;;4971727;28;20100;-59
2022/12/10 07:37:19;;;;;;;21.08;14.25;;;;;;;;;;4971983;28;20051;-58
2022/12/10 07:39:46;;;;;;;22.77;13.98;;;;;;;;;;4971632;28;20499;-58
2022/12/10 07:42:14;;;;;;;21.15;14.10;;;;;;;;;;4971458;28;20043;-58
2022/12/10 07:44:42;;;;;;;19.55;13.75;;;;;;;;;;4971461;28;20408;-67
2022/12/10 07:47:15;;;;;;;19.70;13.77;;;;;;;;;;4971504;28;20057;-66
2022/12/10 07:49:42;;;;;;;20.50;13.77;;;;;;;;;;4971491;28;20038;-66
2022/12/10 07:52:10;;;;;;;19.15;12.65;;;;;;;;;;4968924;28;20404;-66
2022/12/10 07:54:37;;;;;;;20.38;12.77;;;;;;;;;;4970030;28;20428;-66
2022/12/10 07:57:05;;;;;;;63.67;43.53;;;;;;;;;;4986418;28;20473;-66
2022/12/10 07:59:33;;;;;;;37.17;25.58;;;;;;;;;;4971389;28;20100;-66
2022/12/10 08:02:00;;;;;;;23.42;15.77;;;;;;;;;;4971189;28;20121;-66
2022/12/10 08:04:35;;;;;;;20.23;14.53;;;;;;;;;;4971491;28;20038;-66
2022/12/10 08:07:02;;;;;;;23.75;15.07;;;;;;;;;;4971362;28;20364;-68
2022/12/10 08:09:31;;;;;;;23.92;15.95;;;;;;;;;;4971248;28;20043;-68
2022/12/10 08:11:58;;;;;;;25.40;18.58;;;;;;;;;;4971274;28;20089;-68
2022/12/10 08:14:26;;;;;;;28.08;18.65;;;;;;;;;;4971124;28;20092;-68
2022/12/10 08:16:53;;;;;;;32.22;19.38;;;;;;;;;;4969773;28;20439;-69
2022/12/10 08:19:21;;;;;;;30.42;20.02;;;;;;;;;;4971186;28;20069;-68
2022/12/10 08:21:56;;;;;;;29.73;20.08;;;;;;;;;;4970957;28;20057;-67
2022/12/10 08:24:23;;;;;;;28.38;20.15;;;;;;;;;;4970736;28;20047;-68
2022/12/10 08:26:51;;;;;;;28.52;19.58;;;;;;;;;;4970903;28;20519;-67
2022/12/10 08:29:18;;;;;;;32.53;20.63;;;;;;;;;;4969735;28;20509;-67
2022/12/10 08:31:46;;;;;;;27.42;18.63;;;;;;;;;;4969808;28;20042;-68
2022/12/10 08:34:16;;;;;;;33.83;21.60;;;;;;;;;;4970799;28;20039;-68
2022/12/10 08:36:44;;;;;;;27.13;18.77;;;;;;;;;;4980112;28;20473;-67
2022/12/10 08:39:16;;;;;;;41.53;27.63;;;;;;;;;;4990491;28;20047;-67
2022/12/10 08:41:45;;;;;;;23.85;16.67;;;;;;;;;;4988737;28;20046;-67
2022/12/10 08:44:12;;;;;;;25.33;17.85;;;;;;;;;;4990064;28;20053;-68
2022/12/10 08:46:40;;;;;;;29.52;19.83;;;;;;;;;;4988850;28;20057;-67
2022/12/10 08:49:07;;;;;;;27.52;19.23;;;;;;;;;;4990149;28;20042;-68
2022/12/10 08:51:35;;;;;;;27.38;19.58;;;;;;;;;;4990202;28;20038;-68
2022/12/10 08:54:02;;;;;;;40.33;25.60;;;;;;;;;;4989958;28;20034;-68
2022/12/10 08:56:30;;;;;;;30.80;20.60;;;;;;;;;;4990111;28;20046;-68
2022/12/10 08:58:58;;;;;;;29.08;20.38;;;;;;;;;;4972232;28;20043;-68
2022/12/10 09:01:26;;;;;;;29.88;20.05;;;;;;;;;;4989904;28;20042;-68
2022/12/10 09:03:53;;;;;;;31.42;20.30;;;;;;;;;;4991598;28;20046;-68
2022/12/10 09:06:23;;;;;;;26.83;19.10;;;;;;;;;;4992161;28;20049;-66
2022/12/10 09:08:51;;;;;;;26.80;19.08;;;;;;;;;;4993440;28;20091;-65
2022/12/10 09:11:22;;;;;;;27.80;19.92;;;;;;;;;;4993412;28;20480;-65
2022/12/10 09:13:49;;;;;;;32.55;20.10;;;;;;;;;;4993378;28;20047;-65
2022/12/10 09:16:17;;;;;;;27.45;19.80;;;;;;;;;;5065974;28;20122;-65
2022/12/10 09:18:44;;;;;;;27.75;19.90;;;;;;;;;;5094794;28;20047;-63
2022/12/10 09:21:15;;;;;;;25.90;18.60;;;;;;;;;;5095955;28;20033;-64
2022/12/10 09:23:43;;;;;;;26.95;18.63;;;;;;;;;;5096124;28;20055;-65
2022/12/10 09:26:14;;;;;;;24.98;18.73;;;;;;;;;;5095715;28;20040;-64
2022/12/10 09:28:42;;;;;;;26.48;18.88;;;;;;;;;;5095906;28;20048;-64
2022/12/10 09:31:10;;;;;;;24.17;18.08;;;;;;;;;;5052590;28;20042;-64
2022/12/10 09:33:47;;;;;;;24.02;17.67;;;;;;;;;;4993003;28;20066;-63
2022/12/10 09:36:15;;;;;;;24.67;18.20;;;;;;;;;;4991982;28;20088;-64
2022/12/10 09:38:43;;;;;;;24.52;17.55;;;;;;;;;;4992914;28;20046;-64
2022/12/10 09:41:11;;;;;;;24.60;18.75;;;;;;;;;;4992880;28;20051;-64
2022/12/10 09:43:46;;;;;;;24.85;18.73;;;;;;;;;;4992774;28;20125;-64
2022/12/10 09:46:27;;;;;;;25.52;18.35;;;;;;;;;;4992942;28;20103;-64
2022/12/10 09:49:13;;;;;;;27.55;18.75;;;;;;;;;;4992707;28;20096;-64
2022/12/10 09:51:41;;;;;;;28.75;19.45;;;;;;;;;;4992498;28;20372;-65
2022/12/10 09:54:29;;;;;;;28.60;19.90;;;;;;;;;;4992735;28;20031;-64
2022/12/10 09:56:57;;;;;;;35.15;21.15;;;;;;;;;;4998421;28;20046;-60
2022/12/10 09:59:28;;;;;;;28.60;20.83;;;;;;;;;;4992720;28;20096;-61
2022/12/10 10:02:15;;;;;;;29.95;21.08;;;;;;;;;;4991099;28;20055;-61
2022/12/10 10:04:43;;;;;;;26.42;19.35;;;;;;;;;;4998551;28;20085;-61
2022/12/10 10:07:17;;;;;;;28.15;19.75;;;;;;;;;;4992410;28;20373;-61
2022/12/10 10:09:45;;;;;;;30.35;20.58;;;;;;;;;;4992370;28;20072;-61
2022/12/10 10:12:16;;;;;;;30.85;20.95;;;;;;;;;;4992394;28;20442;-60
2022/12/10 10:14:44;;;;;;;28.88;19.60;;;;;;;;;;4991623;28;20042;-60
2022/12/10 10:17:17;;;;;;;30.52;20.25;;;;;;;;;;4992348;28;20050;-61
2022/12/10 10:19:45;;;;;;;32.10;20.45;;;;;;;;;;4992080;28;20134;-60
2022/12/10 10:22:12;;;;;;;28.58;20.63;;;;;;;;;;4992049;28;20503;-60
2022/12/10 10:24:41;;;;;;;34.67;22.17;;;;;;;;;;4982249;28;20111;-61
2022/12/10 10:27:23;;;;;;;32.33;22.15;;;;;;;;;;4982515;28;20530;-61
2022/12/10 10:29:51;;;;;;;30.33;20.50;;;;;;;;;;4980647;28;20373;-61
2022/12/10 10:32:36;;;;;;;27.67;20.10;;;;;;;;;;4989890;28;20034;-61
2022/12/10 10:35:05;;;;;;;23.17;17.35;;;;;;;;;;4987868;28;20388;-60
2022/12/10 10:37:40;;;;;;;20.77;15.57;;;;;;;;;;4972026;28;20069;-60
2022/12/10 10:40:28;;;;;;;22.65;16.15;;;;;;;;;;4972218;28;20050;-60
2022/12/10 10:42:57;;;;;;;22.17;15.07;;;;;;;;;;4992161;28;20051;-60
2022/12/10 10:45:33;;;;;;;18.63;13.90;;;;;;;;;;4988791;28;20484;-60
2022/12/10 10:48:19;;;;;;;23.42;15.18;;;;;;;;;;4991829;28;20038;-61
2022/12/10 10:50:48;;;;;;;20.00;14.15;;;;;;;;;;4991542;28;20038;-60
2022/12/10 10:53:52;;;;;;;19.90;14.20;;;;;;;;;;4991629;28;20034;-60
2022/12/10 10:56:20;;;;;;;20.45;14.85;;;;;;;;;;5031488;28;20072;-60
2022/12/10 10:59:00;;;;;;;21.73;14.85;;;;;;;;;;4983353;28;20397;-60
2022/12/10 11:01:43;;;;;;;21.58;14.55;;;;;;;;;;4990735;28;20140;-61
2022/12/10 11:04:11;;;;;;;22.20;15.65;;;;;;;;;;4987544;28;20043;-60
2022/12/10 11:06:40;;;;;;;21.35;15.07;;;;;;;;;;4990627;28;20092;-60
2022/12/10 11:09:08;;;;;;;40.60;17.40;;;;;;;;;;4986809;28;20049;-61
2022/12/10 11:11:37;;;;;;;26.45;15.20;;;;;;;;;;4983339;28;20045;-60
2022/12/10 11:14:15;;;;;;;118.18;32.83;;;;;;;;;;4971668;28;20092;-60
2022/12/10 11:16:42;;;;;;;30.15;16.67;;;;;;;;;;4971921;28;20046;-60
2022/12/10 11:19:19;;;;;;;26.58;17.83;;;;;;;;;;4970528;28;20070;-60
2022/12/10 11:21:46;;;;;;;32.58;19.20;;;;;;;;;;4989873;28;20533;-60
2022/12/10 11:24:16;;;;;;;26.20;16.80;;;;;;;;;;4991179;28;20478;-61
2022/12/10 11:27:04;;;;;;;22.30;16.33;;;;;;;;;;4989597;28;20046;-61
2022/12/10 11:29:44;;;;;;;20.75;14.90;;;;;;;;;;4988892;28;20057;-59
2022/12/10 11:32:31;;;;;;;28.85;18.58;;;;;;;;;;4974993;28;20434;-59
2022/12/10 11:35:11;;;;;;;22.15;15.60;;;;;;;;;;4985146;28;20133;-60
2022/12/10 11:37:47;;;;;;;22.60;16.25;;;;;;;;;;4989328;28;20516;-60
2022/12/10 11:40:30;;;;;;;25.63;17.98;;;;;;;;;;4987279;28;20038;-61
2022/12/10 11:43:00;;;;;;;31.27;20.83;;;;;;;;;;4987703;28;20056;-61
2022/12/10 11:45:48;;;;;;;23.92;16.30;;;;;;;;;;4979106;28;20039;-60
2022/12/10 11:48:18;;;;;;;25.98;15.98;;;;;;;;;;4970801;28;20078;-60
2022/12/10 11:50:48;;;;;;;19.38;13.68;;;;;;;;;;4977690;28;20047;-59
2022/12/10 11:53:37;;;;;;;18.00;13.18;;;;;;;;;;4971476;28;20049;-59
2022/12/10 11:56:13;;;;;;;25.85;13.90;;;;;;;;;;4971219;28;20130;-60
2022/12/10 11:59:10;;;;;;;16.15;9.38;;;;;;;;;;4970915;28;20047;-60
2022/12/10 12:01:49;;;;;;;16.55;10.07;;;;;;;;;;4990323;28;20137;-61
2022/12/10 12:04:23;;;;;;;18.05;11.02;;;;;;;;;;4981349;28;20050;-60
2022/12/10 12:07:08;;;;;;;17.40;10.77;;;;;;;;;;4976864;28;20041;-60
2022/12/10 12:09:42;;;;;;;16.25;9.40;;;;;;;;;;4974455;28;20043;-59
2022/12/10 12:12:22;;;;;;;17.65;9.60;;;;;;;;;;4969743;28;20092;-61
2022/12/10 12:14:54;;;;;;;15.48;9.75;;;;;;;;;;4967868;28;20050;-60
2022/12/10 12:17:28;;;;;;;14.13;9.70;;;;;;;;;;4984424;28;20073;-61
2022/12/10 12:20:04;;;;;;;14.07;10.05;;;;;;;;;;4979665;28;20400;-61
2022/12/10 12:22:37;;;;;;;13.45;10.18;;;;;;;;;;4978369;28;20047;-61
2022/12/10 12:25:31;;;;;;;17.00;10.73;;;;;;;;;;4989592;28;20126;-60
2022/12/10 12:28:17;;;;;;;15.98;10.43;;;;;;;;;;5003194;28;20488;-61
2022/12/10 12:30:47;;;;;;;27.63;19.23;;;;;;;;;;4980237;28;20050;-61
2022/12/10 12:33:30;;;;;;;21.52;14.23;;;;;;;;;;4973662;28;20037;-60
2022/12/10 12:36:00;;;;;;;15.75;9.73;;;;;;;;;;4990244;28;20148;-61
2022/12/10 12:38:33;;;;;;;14.90;9.82;;;;;;;;;;4992064;28;20034;-60
2022/12/10 12:41:17;;;;;;;17.17;10.82;;;;;;;;;;4996539;28;20135;-60
2022/12/10 12:43:50;;;;;;;16.92;11.02;;;;;;;;;;4989185;28;20038;-60
2022/12/10 12:46:27;;;;;;;14.20;10.25;;;;;;;;;;4975847;28;20066;-60
2022/12/10 12:49:01;;;;;;;13.88;9.68;;;;;;;;;;4976405;28;20084;-60
2022/12/10 12:51:47;;;;;;;14.83;10.20;;;;;;;;;;4976513;28;20065;-60
2022/12/10 12:54:15;;;;;;;15.68;9.50;;;;;;;;;;4975263;28;20096;-60
2022/12/10 12:57:01;;;;;;;15.60;9.13;;;;;;;;;;4976261;28;20117;-60
2022/12/10 12:59:36;;;;;;;13.60;9.48;;;;;;;;;;4974940;28;20122;-61
2022/12/10 13:02:04;;;;;;;17.02;10.45;;;;;;;;;;4975229;28;20097;-59
2022/12/10 13:04:31;;;;;;;14.15;8.77;;;;;;;;;;4976625;28;20043;-60
2022/12/10 13:07:14;;;;;;;22.73;12.15;;;;;;;;;;4979661;28;20042;-61
2022/12/10 13:09:46;;;;;;;21.42;15.20;;;;;;;;;;4976267;28;20042;-59
2022/12/10 13:12:16;;;;;;;32.13;18.13;;;;;;;;;;4974858;28;20520;-60
2022/12/10 13:14:44;;;;;;;20.77;15.60;;;;;;;;;;4976154;28;20046;-60
2022/12/10 13:17:14;;;;;;;27.85;18.60;;;;;;;;;;4976115;28;20112;-60
2022/12/10 13:19:42;;;;;;;17.45;11.20;;;;;;;;;;4974872;28;20492;-58
2022/12/10 13:22:11;;;;;;;18.98;12.40;;;;;;;;;;4976276;28;20070;-59
2022/12/10 13:24:39;;;;;;;21.83;13.65;;;;;;;;;;4976114;28;20047;-60
2022/12/10 13:27:09;;;;;;;23.58;16.27;;;;;;;;;;4976030;28;20047;-60
2022/12/10 13:29:45;;;;;;;25.85;15.50;;;;;;;;;;4988085;28;20489;-60
2022/12/10 13:32:23;;;;;;;24.13;16.60;;;;;;;;;;4982254;28;20038;-60
2022/12/10 13:35:08;;;;;;;24.30;15.73;;;;;;;;;;4992793;28;20042;-61
2022/12/10 13:37:38;;;;;;;23.58;17.85;;;;;;;;;;4977782;28;20043;-60
2022/12/10 13:40:08;;;;;;;27.58;19.77;;;;;;;;;;4979664;28;20069;-60
2022/12/10 13:45:23;;;;;;;27.35;19.27;;;;;;;;;;4975959;28;20042;-61
2022/12/10 13:47:54;;;;;;;28.42;18.77;;;;;;;;;;4974704;28;20443;-61
2022/12/10 13:50:28;;;;;;;24.27;16.40;;;;;;;;;;4977546;28;20046;-61
2022/12/10 13:53:04;;;;;;;25.70;18.25;;;;;;;;;;4989221;28;20073;-61
2022/12/10 13:55:34;;;;;;;23.35;15.65;;;;;;;;;;4991686;28;20041;-60
2022/12/10 13:58:20;;;;;;;26.27;17.77;;;;;;;;;;4991657;28;20514;-61
2022/12/10 14:00:54;;;;;;;31.95;21.27;;;;;;;;;;4992449;28;20066;-60
2022/12/10 14:03:30;;;;;;;39.22;26.08;;;;;;;;;;4991089;28;20480;-58
2022/12/10 14:06:01;;;;;;;41.63;28.27;;;;;;;;;;4992348;28;20117;-59
2022/12/10 14:08:30;;;;;;;62.03;36.85;;;;;;;;;;4992456;28;20046;-59
2022/12/10 14:10:58;;;;;;;43.08;27.17;;;;;;;;;;4992373;28;20336;-59
2022/12/10 14:13:47;;;;;;;67.85;35.00;;;;;;;;;;4992532;28;20049;-60
2022/12/10 14:16:15;;;;;;;65.68;31.83;;;;;;;;;;4992585;28;20038;-59
2022/12/10 14:18:44;;;;;;;57.20;29.42;;;;;;;;;;4992499;28;20088;-59
2022/12/10 14:21:12;;;;;;;103.07;48.22;;;;;;;;;;4992253;28;20446;-59
2022/12/10 14:23:44;;;;;;;41.33;24.55;;;;;;;;;;4992503;28;20050;-59
2022/12/10 14:26:18;;;;;;;52.10;30.73;;;;;;;;;;4991170;28;20046;-58
2022/12/10 14:28:47;;;;;;;53.35;33.53;;;;;;;;;;4991429;28;20092;-60
2022/12/10 14:31:19;;;;;;;47.38;28.63;;;;;;;;;;4991903;28;20035;-58
2022/12/10 14:33:47;;;;;;;43.10;26.83;;;;;;;;;;4991998;28;20480;-61
2022/12/10 14:36:16;;;;;;;32.20;22.75;;;;;;;;;;4991825;28;20553;-59
2022/12/10 14:38:45;;;;;;;35.75;23.30;;;;;;;;;;4990665;28;20043;-59
2022/12/10 14:41:14;;;;;;;60.92;44.95;;;;;;;;;;4992193;28;20553;-59
2022/12/10 14:43:42;;;;;;;75.28;53.05;;;;;;;;;;4992078;28;20086;-59
2022/12/10 14:46:14;;;;;;;99.43;61.75;;;;;;;;;;4992111;28;20042;-59
2022/12/10 14:48:43;;;;;;;97.55;59.10;;;;;;;;;;4991878;28;20050;-59
2022/12/10 14:51:21;;;;;;;107.25;68.45;;;;;;;;;;4991991;28;20121;-59